Time;durP1;ratioP1;P1;durP2;ratioP2;P2;SDS_P1;SDS_P2;PMS_P1;PMS_P2;Temp;Humidity;BMP_temperature;BMP_pressure;BME280_temperature;BME280_humidity;BME280_pressure;Samples;Min_cycle;Max_cycle;Signal;HPM_P1;HPM_P2
2024/01/25 00:01:54;;;;;;;;;;;;;;;8.96;69.87;101695.06;4987674;28;19933;-75
2024/01/25 00:04:21;;;;;;;;;;;;;;;8.94;69.65;101700.28;4991739;28;19937;-78
2024/01/25 00:06:48;;;;;;;;;;;;;;;8.89;69.91;101691.50;4990322;28;19942;-78
2024/01/25 00:09:15;;;;;;;;;;;;;;;8.92;69.28;101681.09;4987499;28;19957;-78
2024/01/25 00:11:42;;;;;;;;;;;;;;;8.86;69.50;101679.28;4990127;28;19930;-78
2024/01/25 00:14:09;;;;;;;;;;;;;;;8.83;69.23;101676.59;4994467;28;19930;-78
2024/01/25 00:16:36;;;;;;;;;;;;;;;8.90;68.83;101669.69;4992525;28;19934;-79
2024/01/25 00:19:02;;;;;;;;;;;;;;;8.81;69.61;101677.44;4994079;28;19947;-77
2024/01/25 00:21:29;;;;;;;;;;;;;;;8.87;69.13;101677.53;4994519;28;19961;-78
2024/01/25 00:23:56;;;;;;;;;;;;;;;8.81;69.39;101687.94;4992984;28;19965;-78
2024/01/25 00:26:22;;;;;;;;;;;;;;;8.75;69.53;101673.03;4994087;28;19926;-77
2024/01/25 00:28:49;;;;;;;;;;;;;;;8.66;70.24;101689.50;4988538;28;19934;-77
2024/01/25 00:31:16;;;;;;;;;;;;;;;8.78;69.55;101685.28;4992531;28;19926;-77
2024/01/25 00:33:42;;;;;;;;;;;;;;;8.73;69.72;101685.19;4990884;28;21111;-78
2024/01/25 00:36:09;;;;;;;;;;;;;;;8.78;69.49;101698.34;4972202;28;19933;-78
2024/01/25 00:38:36;;;;;;;;;;;;;;;8.81;68.90;101694.03;4990509;28;19933;-78
2024/01/25 00:41:03;;;;;;;;;;;;;;;8.78;68.92;101688.75;4987760;28;19941;-78
2024/01/25 00:43:29;;;;;;;;;;;;;;;8.80;68.95;101687.03;4989077;28;19960;-78
2024/01/25 00:45:56;;;;;;;;;;;;;;;8.91;67.83;101689.78;4989654;28;19961;-78
2024/01/25 00:48:23;;;;;;;;;;;;;;;8.81;68.25;101683.56;4993706;28;19930;-79
2024/01/25 00:50:50;;;;;;;;;;;;;;;8.87;68.14;101680.13;4987458;28;19976;-79
2024/01/25 00:53:16;;;;;;;;;;;;;;;8.77;68.28;101684.38;4985302;28;19932;-79
2024/01/25 00:55:43;;;;;;;;;;;;;;;8.78;68.14;101683.53;4986286;28;19933;-76
2024/01/25 00:58:10;;;;;;;;;;;;;;;8.82;67.99;101687.03;4995524;28;19929;-78
2024/01/25 01:00:36;;;;;;;;;;;;;;;8.84;67.67;101693.19;4993652;28;19926;-78
2024/01/25 01:03:05;;;;;;;;;;;;;;;8.64;68.49;101679.84;4995292;28;19937;-78
2024/01/25 01:05:31;;;;;;;;;;;;;;;8.64;68.38;101685.97;4978579;28;19926;-77
2024/01/25 01:07:58;;;;;;;;;;;;;;;8.52;68.98;101691.03;4982860;28;19937;-78
2024/01/25 01:10:25;;;;;;;;;;;;;;;8.53;69.26;101696.28;4998477;28;19948;-78
2024/01/25 01:12:54;;;;;;;;;;;;;;;8.56;69.16;101692.84;4996537;28;19926;-78
2024/01/25 01:15:20;;;;;;;;;;;;;;;8.50;69.21;101682.28;4993442;28;19996;-78
2024/01/25 01:17:47;;;;;;;;;;;;;;;8.47;69.46;101690.09;4995758;28;19926;-78
2024/01/25 01:20:14;;;;;;;;;;;;;;;8.48;69.26;101678.78;4997130;28;19925;-78
2024/01/25 01:22:41;;;;;;;;;;;;;;;8.56;68.92;101687.63;4992954;28;19934;-78
2024/01/25 01:25:07;;;;;;;;;;;;;;;8.57;69.07;101683.25;4995615;28;19948;-78
2024/01/25 01:27:34;;;;;;;;;;;;;;;8.48;69.32;101681.38;4994009;28;19933;-78
2024/01/25 01:30:01;;;;;;;;;;;;;;;8.40;69.62;101685.59;4979243;28;19929;-76
2024/01/25 01:32:27;;;;;;;;;;;;;;;8.43;69.63;101691.78;4988865;28;19926;-78
2024/01/25 01:34:54;;;;;;;;;;;;;;;8.34;70.08;101682.06;4989552;28;19968;-78
2024/01/25 01:37:21;;;;;;;;;;;;;;;8.39;69.75;101686.47;4990990;28;19953;-79
2024/01/25 01:39:48;;;;;;;;;;;;;;;8.34;69.87;101697.75;4989088;28;19940;-78
2024/01/25 01:42:14;;;;;;;;;;;;;;;8.29;70.35;101694.19;4986956;28;19988;-78
2024/01/25 01:44:41;;;;;;;;;;;;;;;8.22;70.56;101696.69;4992801;28;19930;-78
2024/01/25 01:47:07;;;;;;;;;;;;;;;8.25;70.34;101697.59;4987054;28;19994;-78
2024/01/25 01:49:34;;;;;;;;;;;;;;;8.12;70.85;101699.16;4989338;28;19938;-78
2024/01/25 01:52:02;;;;;;;;;;;;;;;8.19;70.67;101694.91;5000516;28;19926;-78
2024/01/25 01:54:28;;;;;;;;;;;;;;;8.26;70.48;101688.91;4987458;28;19930;-77
2024/01/25 01:56:55;;;;;;;;;;;;;;;8.31;69.78;101687.25;4988551;28;19930;-78
2024/01/25 01:59:25;;;;;;;;;;;;;;;8.17;70.42;101699.25;4988822;28;19989;-80
2024/01/25 02:01:52;;;;;;;;;;;;;;;8.29;70.16;101694.19;4985942;28;19930;-79
2024/01/25 02:04:19;;;;;;;;;;;;;;;8.36;69.85;101700.38;4992757;28;19934;-77
2024/01/25 02:06:45;;;;;;;;;;;;;;;8.17;70.73;101699.25;4976806;28;19965;-79
2024/01/25 02:09:13;;;;;;;;;;;;;;;8.16;70.32;101695.72;4979778;28;19945;-78
2024/01/25 02:11:39;;;;;;;;;;;;;;;8.15;70.75;101716.63;4985452;28;19937;-79
2024/01/25 02:14:10;;;;;;;;;;;;;;;8.03;71.41;101706.88;4990367;28;20009;-80
2024/01/25 02:16:37;;;;;;;;;;;;;;;8.16;70.22;101707.94;4987427;28;19997;-78
2024/01/25 02:19:04;;;;;;;;;;;;;;;8.18;70.04;101696.66;4972206;28;19926;-79
2024/01/25 02:21:30;;;;;;;;;;;;;;;8.10;70.29;101698.25;4990754;28;19980;-77
2024/01/25 02:23:58;;;;;;;;;;;;;;;7.95;71.00;101693.69;4989704;28;19933;-78
2024/01/25 02:26:24;;;;;;;;;;;;;;;7.91;71.14;101697.09;4991365;28;19988;-77
2024/01/25 02:28:51;;;;;;;;;;;;;;;7.85;71.52;101710.06;4987844;28;20404;-79
2024/01/25 02:31:20;;;;;;;;;;;;;;;7.91;71.18;101704.06;4987968;28;20155;-77
2024/01/25 02:33:47;;;;;;;;;;;;;;;7.90;71.05;101700.56;5005473;28;19933;-78
2024/01/25 02:36:14;;;;;;;;;;;;;;;7.92;71.03;101708.41;4988175;28;19930;-77
2024/01/25 02:38:40;;;;;;;;;;;;;;;7.84;71.37;101714.41;4986664;28;19934;-79
2024/01/25 02:41:07;;;;;;;;;;;;;;;7.82;71.16;101712.63;4989670;28;19934;-79
2024/01/25 02:43:33;;;;;;;;;;;;;;;7.73;71.71;101712.47;4994368;28;19932;-79
2024/01/25 02:46:00;;;;;;;;;;;;;;;7.59;72.49;101720.97;4997931;28;19926;-79
2024/01/25 02:48:27;;;;;;;;;;;;;;;7.48;73.10;101714.66;5000525;28;19925;-76
2024/01/25 02:50:54;;;;;;;;;;;;;;;7.46;73.31;101713.75;5000408;28;19934;-79
2024/01/25 02:53:20;;;;;;;;;;;;;;;7.43;73.36;101724.13;4996513;28;19932;-79
2024/01/25 02:55:47;;;;;;;;;;;;;;;7.70;71.98;101717.66;5001752;28;19925;-78
2024/01/25 02:58:14;;;;;;;;;;;;;;;7.54;72.40;101733.03;5000589;28;19926;-79
2024/01/25 03:00:40;;;;;;;;;;;;;;;7.59;72.17;101736.63;4996890;28;19932;-79
2024/01/25 03:03:07;;;;;;;;;;;;;;;7.73;71.47;101717.69;4987526;28;19933;-78
2024/01/25 03:05:34;;;;;;;;;;;;;;;7.65;71.77;101731.50;4980743;28;19926;-79
2024/01/25 03:08:01;;;;;;;;;;;;;;;7.52;72.01;101733.84;4995648;28;19941;-78
2024/01/25 03:10:28;;;;;;;;;;;;;;;7.58;71.74;101729.63;4977019;28;19932;-77
2024/01/25 03:12:55;;;;;;;;;;;;;;;7.52;71.85;101726.91;4988745;28;19926;-77
2024/01/25 03:15:22;;;;;;;;;;;;;;;7.47;72.14;101716.41;4986508;28;19953;-78
2024/01/25 03:17:48;;;;;;;;;;;;;;;7.51;72.01;101722.53;4998120;28;19945;-79
2024/01/25 03:20:15;;;;;;;;;;;;;;;7.50;72.04;101715.56;4999333;28;19932;-78
2024/01/25 03:22:42;;;;;;;;;;;;;;;7.46;71.82;101719.84;4999478;28;19988;-79
2024/01/25 03:25:09;;;;;;;;;;;;;;;7.50;71.77;101715.56;4999305;28;19932;-79
2024/01/25 03:27:36;;;;;;;;;;;;;;;7.40;72.39;101718.84;4998679;28;19930;-78
2024/01/25 03:30:05;;;;;;;;;;;;;;;7.27;72.72;101713.41;4998391;28;19926;-79
2024/01/25 03:32:32;;;;;;;;;;;;;;;7.25;72.72;101725.53;5000001;28;20294;-77
2024/01/25 03:34:59;;;;;;;;;;;;;;;7.19;72.79;101722.81;4993155;28;20020;-79
2024/01/25 03:37:26;;;;;;;;;;;;;;;7.22;72.73;101725.50;4993187;28;19929;-79
2024/01/25 03:39:53;;;;;;;;;;;;;;;7.04;73.29;101739.06;4989914;28;19980;-79
2024/01/25 03:42:19;;;;;;;;;;;;;;;6.94;73.82;101730.16;4979048;28;19953;-78
2024/01/25 03:44:47;;;;;;;;;;;;;;;6.77;74.29;101721.97;4994799;28;19984;-79
2024/01/25 03:47:13;;;;;;;;;;;;;;;6.82;74.34;101740.34;4997393;28;19941;-78
2024/01/25 03:49:40;;;;;;;;;;;;;;;6.70;74.65;101732.25;4996096;28;19925;-79
2024/01/25 03:52:07;;;;;;;;;;;;;;;6.53;74.91;101739.72;4989952;28;19986;-79
2024/01/25 03:54:34;;;;;;;;;;;;;;;6.47;75.59;101744.81;4982256;28;19926;-78
2024/01/25 03:57:01;;;;;;;;;;;;;;;6.43;75.32;101730.78;4992837;28;19949;-78
2024/01/25 03:59:28;;;;;;;;;;;;;;;6.34;75.96;101741.03;4995654;28;19926;-77
2024/01/25 04:01:54;;;;;;;;;;;;;;;6.57;75.31;101739.81;4997530;28;19926;-78
2024/01/25 04:04:21;;;;;;;;;;;;;;;6.41;75.52;101748.16;4995289;28;19957;-78
2024/01/25 04:06:48;;;;;;;;;;;;;;;6.35;75.86;101748.00;4989287;28;19976;-76
2024/01/25 04:09:15;;;;;;;;;;;;;;;6.40;76.07;101743.75;4992211;28;19926;-78
2024/01/25 04:11:41;;;;;;;;;;;;;;;6.37;75.92;101749.81;4988351;28;19930;-79
2024/01/25 04:14:08;;;;;;;;;;;;;;;6.29;76.34;101743.53;4993128;28;19930;-76
2024/01/25 04:16:35;;;;;;;;;;;;;;;6.20;76.77;101753.72;4991789;28;19926;-76
2024/01/25 04:19:01;;;;;;;;;;;;;;;6.19;76.60;101760.66;4992423;28;19940;-79
2024/01/25 04:21:28;;;;;;;;;;;;;;;6.31;76.35;101769.63;4993010;28;19937;-77
2024/01/25 04:23:56;;;;;;;;;;;;;;;6.60;75.26;101757.25;4995008;28;19926;-78
2024/01/25 04:26:23;;;;;;;;;;;;;;;6.56;75.61;101758.94;4997172;28;19932;-78
2024/01/25 04:28:49;;;;;;;;;;;;;;;6.40;76.03;101768.13;4989685;28;19934;-78
2024/01/25 04:31:17;;;;;;;;;;;;;;;6.38;76.34;101764.59;4987565;28;19930;-78
2024/01/25 04:33:44;;;;;;;;;;;;;;;6.47;75.63;101771.75;4984042;28;20352;-79
2024/01/25 04:36:14;;;;;;;;;;;;;;;6.41;76.01;101769.00;4988543;28;19925;-77
2024/01/25 04:38:41;;;;;;;;;;;;;;;6.30;76.43;101780.91;4991533;28;19926;-77
2024/01/25 04:41:08;;;;;;;;;;;;;;;6.19;76.40;101784.13;4984328;28;20278;-78
2024/01/25 04:43:36;;;;;;;;;;;;;;;6.26;76.40;101786.03;4986088;28;19997;-79
2024/01/25 04:46:03;;;;;;;;;;;;;;;6.24;76.25;101797.28;4987792;28;19934;-77
2024/01/25 04:48:30;;;;;;;;;;;;;;;6.22;76.39;101802.44;4987828;28;19945;-76
2024/01/25 04:50:58;;;;;;;;;;;;;;;6.15;76.57;101800.53;4975856;28;19965;-78
2024/01/25 04:53:25;;;;;;;;;;;;;;;6.18;76.64;101807.56;4991665;28;19932;-78
2024/01/25 04:55:53;;;;;;;;;;;;;;;6.15;76.61;101803.16;4985346;28;19933;-77
2024/01/25 04:58:19;;;;;;;;;;;;;;;6.14;76.63;101804.00;4993604;28;19930;-79
2024/01/25 05:00:46;;;;;;;;;;;;;;;6.21;76.72;101798.09;4996945;28;20336;-79
2024/01/25 05:03:13;;;;;;;;;;;;;;;6.21;76.25;101798.09;5007452;28;19949;-78
2024/01/25 05:05:39;;;;;;;;;;;;;;;6.05;76.78;101794.25;4991237;28;19934;-79
2024/01/25 05:08:06;;;;;;;;;;;;;;;6.06;76.86;101803.78;4989998;28;19941;-78
2024/01/25 05:10:33;;;;;;;;;;;;;;;6.05;76.69;101806.38;4992796;28;19930;-76
2024/01/25 05:12:59;;;;;;;;;;;;;;;5.97;76.85;101813.06;4992928;28;19933;-78
2024/01/25 05:15:26;;;;;;;;;;;;;;;6.05;76.64;101808.97;4991705;28;19926;-78
2024/01/25 05:17:52;;;;;;;;;;;;;;;5.98;76.95;101814.88;4983988;28;20374;-78
2024/01/25 05:20:19;;;;;;;;;;;;;;;5.93;76.96;101820.81;4993493;28;19926;-76
2024/01/25 05:22:46;;;;;;;;;;;;;;;5.99;77.01;101822.72;4978886;28;19926;-79
2024/01/25 05:25:13;;;;;;;;;;;;;;;5.96;76.88;101824.34;4993409;28;19957;-77
2024/01/25 05:27:40;;;;;;;;;;;;;;;5.88;77.26;101824.13;4974398;28;19930;-77
2024/01/25 05:30:07;;;;;;;;;;;;;;;5.85;77.03;101826.66;4989714;28;19927;-79
2024/01/25 05:32:33;;;;;;;;;;;;;;;5.71;77.36;101837.59;4984760;28;19926;-78
2024/01/25 05:35:00;;;;;;;;;;;;;;;5.68;78.12;101834.03;4987754;28;19977;-78
2024/01/25 05:37:27;;;;;;;;;;;;;;;5.63;78.23;101844.31;4988823;28;19930;-78
2024/01/25 05:39:54;;;;;;;;;;;;;;;5.43;78.40;101846.38;4991558;28;20349;-78
2024/01/25 05:42:20;;;;;;;;;;;;;;;5.45;78.70;101846.41;4995289;28;19980;-78
2024/01/25 05:44:47;;;;;;;;;;;;;;;5.45;78.62;101847.28;4994007;28;19933;-79
2024/01/25 05:47:13;;;;;;;;;;;;;;;5.43;78.57;101841.16;4985305;28;19933;-79
2024/01/25 05:49:40;;;;;;;;;;;;;;;5.36;78.78;101847.03;4976156;28;19942;-79
2024/01/25 05:52:07;;;;;;;;;;;;;;;5.39;79.22;101844.53;4992344;28;19949;-79
2024/01/25 05:54:34;;;;;;;;;;;;;;;5.36;79.11;101842.72;4995973;28;19933;-79
2024/01/25 05:57:01;;;;;;;;;;;;;;;5.47;79.00;101844.72;4994719;28;19973;-78
2024/01/25 05:59:28;;;;;;;;;;;;;;;5.34;79.06;101846.09;4991226;28;20394;-77
2024/01/25 06:01:54;;;;;;;;;;;;;;;5.30;79.43;101839.94;4989404;28;19934;-78
2024/01/25 06:04:21;;;;;;;;;;;;;;;5.37;79.07;101830.56;4992366;28;19957;-79
2024/01/25 06:06:48;;;;;;;;;;;;;;;5.45;79.16;101836.88;4992231;28;19926;-79
2024/01/25 06:09:15;;;;;;;;;;;;;;;5.33;79.34;101839.13;4991420;28;19926;-78
2024/01/25 06:11:45;;;;;;;;;;;;;;;5.48;79.31;101839.56;4984255;28;19933;-78
2024/01/25 06:14:11;;;;;;;;;;;;;;;5.61;78.84;101829.50;4990636;28;19926;-77
2024/01/25 06:16:38;;;;;;;;;;;;;;;5.57;78.92;101829.38;5003204;28;20042;-78
2024/01/25 06:19:05;;;;;;;;;;;;;;;5.58;79.10;101836.38;4990179;28;19933;-78
2024/01/25 06:21:33;;;;;;;;;;;;;;;5.64;79.07;101834.78;4989880;28;19930;-79
2024/01/25 06:24:04;;;;;;;;;;;;;;;5.74;79.00;101821.19;4991299;28;19926;-80
2024/01/25 06:26:31;;;;;;;;;;;;;;;5.62;79.10;101820.81;4985704;28;20357;-79
2024/01/25 06:28:57;;;;;;;;;;;;;;;5.59;79.27;101826.84;4985242;28;21009;-79
2024/01/25 06:31:24;;;;;;;;;;;;;;;5.68;79.07;101826.22;4988176;28;20064;-78
2024/01/25 06:33:52;;;;;;;;;;;;;;;5.81;78.60;101832.63;4986993;28;19950;-78
2024/01/25 06:36:20;;;;;;;;;;;;;;;5.65;78.83;101828.72;4988946;28;19957;-78
2024/01/25 06:38:46;;;;;;;;;;;;;;;5.58;79.17;101833.78;4987049;28;20020;-79
2024/01/25 06:41:13;;;;;;;;;;;;;;;5.58;79.73;101841.59;4988660;28;19946;-78
2024/01/25 06:43:40;;;;;;;;;;;;;;;5.46;79.64;101836.03;4987838;28;19925;-78
2024/01/25 06:46:07;;;;;;;;;;;;;;;5.42;80.04;101834.19;4992727;28;19929;-79
2024/01/25 06:48:33;;;;;;;;;;;;;;;5.35;79.84;101824.44;4989383;28;19930;-80
2024/01/25 06:51:01;;;;;;;;;;;;;;;5.32;80.38;101816.53;4991054;28;19933;-79
2024/01/25 06:53:28;;;;;;;;;;;;;;;5.32;80.41;101821.75;4984181;28;19933;-80
2024/01/25 06:55:54;;;;;;;;;;;;;;;5.38;80.24;101821.91;4979550;28;19926;-79
2024/01/25 06:58:21;;;;;;;;;;;;;;;5.31;80.33;101827.78;4989283;28;19953;-79
2024/01/25 07:00:48;;;;;;;;;;;;;;;5.35;80.08;101832.25;4992422;28;19926;-78
2024/01/25 07:03:16;;;;;;;;;;;;;;;5.29;80.08;101827.75;4971418;28;19940;-79
2024/01/25 07:05:43;;;;;;;;;;;;;;;5.10;80.33;101821.13;4985720;28;19937;-79
2024/01/25 07:08:13;;;;;;;;;;;;;;;5.00;80.77;101840.78;4983042;28;20021;-79
2024/01/25 07:10:40;;;;;;;;;;;;;;;4.92;80.93;101842.25;4993022;28;19949;-79
2024/01/25 07:13:06;;;;;;;;;;;;;;;4.91;81.02;101844.81;4996339;28;19926;-79
2024/01/25 07:15:33;;;;;;;;;;;;;;;4.95;80.81;101831.06;4983813;28;19940;-80
2024/01/25 07:18:00;;;;;;;;;;;;;;;4.96;80.65;101832.84;4991019;28;19965;-78
2024/01/25 07:20:27;;;;;;;;;;;;;;;4.97;80.39;101832.00;4995678;28;19933;-78
2024/01/25 07:22:54;;;;;;;;;;;;;;;4.88;80.95;101851.69;4990615;28;20017;-79
2024/01/25 07:25:21;;;;;;;;;;;;;;;4.86;80.60;101853.34;4987712;28;19937;-80
2024/01/25 07:27:49;;;;;;;;;;;;;;;4.83;81.07;101866.28;4994482;28;19925;-80
2024/01/25 07:30:16;;;;;;;;;;;;;;;4.84;80.81;101872.38;4983134;28;19930;-79
2024/01/25 07:32:43;;;;;;;;;;;;;;;4.82;80.46;101872.34;4982134;28;19944;-78
2024/01/25 07:35:10;;;;;;;;;;;;;;;4.84;80.38;101881.06;4988120;28;19926;-79
2024/01/25 07:37:36;;;;;;;;;;;;;;;4.82;80.65;101880.13;4972957;28;20059;-80
2024/01/25 07:40:03;;;;;;;;;;;;;;;4.77;80.33;101879.09;4989905;28;19941;-79
2024/01/25 07:42:30;;;;;;;;;;;;;;;4.75;80.64;101875.56;4989217;28;19934;-78
2024/01/25 07:44:57;;;;;;;;;;;;;;;4.67;80.47;101872.69;4988625;28;19930;-78
2024/01/25 07:47:24;;;;;;;;;;;;;;;4.69;80.70;101870.16;4986862;28;19984;-78
2024/01/25 07:49:51;;;;;;;;;;;;;;;4.76;80.55;101868.63;4984846;28;19926;-78
2024/01/25 07:52:18;;;;;;;;;;;;;;;5.11;79.75;101868.84;4986945;28;20015;-79
2024/01/25 07:54:44;;;;;;;;;;;;;;;5.02;79.52;101867.72;4989043;28;19930;-78
2024/01/25 07:57:12;;;;;;;;;;;;;;;5.03;79.30;101872.09;4983698;28;19980;-77
2024/01/25 07:59:39;;;;;;;;;;;;;;;5.07;79.32;101862.69;4988708;28;19914;-79
2024/01/25 08:02:06;;;;;;;;;;;;;;;5.04;79.28;101865.19;4988452;28;20370;-78
2024/01/25 08:04:33;;;;;;;;;;;;;;;5.27;78.89;101864.97;4996065;28;19925;-79
2024/01/25 08:07:00;;;;;;;;;;;;;;;5.46;78.30;101856.88;4993936;28;19925;-77
2024/01/25 08:09:27;;;;;;;;;;;;;;;5.39;78.26;101862.75;4994907;28;19933;-77
2024/01/25 08:11:54;;;;;;;;;;;;;;;5.47;78.35;101874.25;4994094;28;19948;-77
2024/01/25 08:14:20;;;;;;;;;;;;;;;5.36;78.58;101873.94;4997402;28;19960;-80
2024/01/25 08:16:47;;;;;;;;;;;;;;;5.43;78.49;101877.63;4989941;28;19926;-78
2024/01/25 08:19:14;;;;;;;;;;;;;;;5.46;78.45;101877.72;4994900;28;19937;-79
2024/01/25 08:21:41;;;;;;;;;;;;;;;5.52;78.50;101874.41;4993067;28;19957;-79
2024/01/25 08:24:08;;;;;;;;;;;;;;;5.58;78.32;101871.97;4996227;28;19926;-79
2024/01/25 08:26:34;;;;;;;;;;;;;;;5.72;78.42;101864.50;4996399;28;19961;-80
2024/01/25 08:29:01;;;;;;;;;;;;;;;5.70;78.33;101861.00;4994686;28;19953;-78
2024/01/25 08:31:28;;;;;;;;;;;;;;;5.66;78.74;101864.34;4996780;28;20016;-78
2024/01/25 08:33:55;;;;;;;;;;;;;;;5.82;78.75;101866.56;4994714;28;19926;-80
2024/01/25 08:36:22;;;;;;;;;;;;;;;5.98;78.11;101862.69;4995968;28;19964;-79
2024/01/25 08:38:49;;;;;;;;;;;;;;;6.04;78.19;101874.97;4995017;28;19932;-78
2024/01/25 08:41:16;;;;;;;;;;;;;;;6.07;77.81;101877.69;4998783;28;19929;-80
2024/01/25 08:43:43;;;;;;;;;;;;;;;6.05;78.64;101881.94;4991381;28;19969;-79
2024/01/25 08:46:12;;;;;;;;;;;;;;;6.01;78.73;101878.38;4994033;28;20060;-79
2024/01/25 08:48:39;;;;;;;;;;;;;;;6.08;79.01;101888.13;4991607;28;19992;-78
2024/01/25 08:51:06;;;;;;;;;;;;;;;6.26;78.51;101885.13;4992615;28;19933;-79
2024/01/25 08:53:32;;;;;;;;;;;;;;;6.24;78.30;101893.72;4993360;28;19969;-78
2024/01/25 08:55:59;;;;;;;;;;;;;;;6.37;78.54;101888.00;4981113;28;19926;-80
2024/01/25 08:58:29;;;;;;;;;;;;;;;6.45;77.99;101893.41;4984041;28;19934;-79
2024/01/25 09:00:56;;;;;;;;;;;;;;;6.51;77.67;101890.94;4990074;28;19933;-79
2024/01/25 09:03:23;;;;;;;;;;;;;;;6.66;77.09;101876.53;4987414;28;20000;-80
2024/01/25 09:05:50;;;;;;;;;;;;;;;6.64;77.55;101891.25;4988115;28;19933;-79
2024/01/25 09:08:17;;;;;;;;;;;;;;;6.50;77.60;101898.75;4984401;28;19929;-79
2024/01/25 09:10:44;;;;;;;;;;;;;;;6.45;78.26;101906.44;4988123;28;19980;-79
2024/01/25 09:13:11;;;;;;;;;;;;;;;6.45;78.48;101906.44;4989237;28;19941;-78
2024/01/25 09:15:37;;;;;;;;;;;;;;;6.68;77.59;101912.25;4991989;28;19961;-80
2024/01/25 09:18:04;;;;;;;;;;;;;;;6.85;77.28;101909.16;4987892;28;19932;-78
2024/01/25 09:20:31;;;;;;;;;;;;;;;7.07;75.18;101905.31;4994246;28;19930;-79
2024/01/25 09:22:58;;;;;;;;;;;;;;;7.13;75.31;101897.63;4985396;28;19934;-79
2024/01/25 09:25:25;;;;;;;;;;;;;;;7.26;74.31;101898.78;4993319;28;19937;-80
2024/01/25 09:27:52;;;;;;;;;;;;;;;7.24;74.57;101895.25;4995068;28;19926;-80
2024/01/25 09:30:20;;;;;;;;;;;;;;;7.30;73.83;101891.03;4981406;28;19926;-80
2024/01/25 09:32:47;;;;;;;;;;;;;;;7.27;74.64;101885.75;4975818;28;19943;-79
2024/01/25 09:35:14;;;;;;;;;;;;;;;7.39;74.50;101889.50;4976233;28;19985;-80
2024/01/25 09:37:41;;;;;;;;;;;;;;;7.38;74.07;101895.56;4978748;28;20024;-79
2024/01/25 09:40:10;;;;;;;;;;;;;;;7.34;74.19;101901.56;4984337;28;19940;-80
2024/01/25 09:42:37;;;;;;;;;;;;;;;7.29;74.38;101909.28;4967638;28;19968;-78
2024/01/25 09:45:05;;;;;;;;;;;;;;;7.37;73.88;101904.22;4963120;28;20381;-80
2024/01/25 09:47:31;;;;;;;;;;;;;;;7.41;73.46;101893.88;4991138;28;19926;-78
2024/01/25 09:49:59;;;;;;;;;;;;;;;7.45;73.65;101894.84;4993767;28;19926;-79
2024/01/25 09:52:26;;;;;;;;;;;;;;;7.44;73.81;101893.97;4992740;28;19932;-80
2024/01/25 09:54:53;;;;;;;;;;;;;;;7.54;73.92;101900.25;4975979;28;19948;-80
2024/01/25 09:57:21;;;;;;;;;;;;;;;7.58;73.48;101902.06;4981678;28;19933;-79
2024/01/25 09:59:50;;;;;;;;;;;;;;;7.63;73.15;101900.44;4983771;28;19930;-79
2024/01/25 10:02:17;;;;;;;;;;;;;;;7.75;73.66;101896.28;4984446;28;19958;-80
2024/01/25 10:04:48;;;;;;;;;;;;;;;7.69;73.12;101894.47;4990776;28;19969;-80
2024/01/25 10:07:14;;;;;;;;;;;;;;;7.82;73.05;101890.34;4990022;28;19926;-80
2024/01/25 10:09:42;;;;;;;;;;;;;;;7.87;73.50;101893.94;4992695;28;19986;-80
2024/01/25 10:12:09;;;;;;;;;;;;;;;8.00;73.61;101890.69;4992779;28;19992;-80
2024/01/25 10:14:44;;;;;;;;;;;;;;;8.05;72.34;101898.63;4992908;28;19979;-78
2024/01/25 10:17:11;;;;;;;;;;;;;;;8.10;71.96;101893.50;4979735;28;19937;-78
2024/01/25 10:19:38;;;;;;;;;;;;;;;8.15;71.20;101904.91;4982714;28;19934;-78
2024/01/25 10:22:06;;;;;;;;;;;;;;;8.34;72.70;101904.41;4967531;28;19930;-78
2024/01/25 10:24:34;;;;;;;;;;;;;;;8.44;70.64;101912.38;4987335;28;19985;-78
2024/01/25 10:27:01;;;;;;;;;;;;;;;8.45;70.36;101915.06;4986219;28;19932;-77
2024/01/25 10:29:28;;;;;;;;;;;;;;;8.58;69.95;101913.53;4963377;28;19932;-77
2024/01/25 10:31:55;;;;;;;;;;;;;;;8.64;69.83;101905.78;4997319;28;19929;-78
2024/01/25 10:34:22;;;;;;;;;;;;;;;8.65;69.47;101912.78;5002653;28;19926;-78
2024/01/25 10:36:49;;;;;;;;;;;;;;;8.67;69.76;101910.19;4962972;28;20351;-78
2024/01/25 10:39:18;;;;;;;;;;;;;;;8.92;68.99;101905.34;4984822;28;19925;-78
2024/01/25 10:41:50;;;;;;;;;;;;;;;8.98;69.26;101911.56;4985856;28;19929;-77
2024/01/25 10:44:19;;;;;;;;;;;;;;;8.95;67.74;101916.75;4988129;28;19932;-78
2024/01/25 10:46:47;;;;;;;;;;;;;;;9.03;67.84;101904.63;4989313;28;20016;-78
2024/01/25 10:49:13;;;;;;;;;;;;;;;9.20;68.76;101899.66;4992174;28;19940;-76
2024/01/25 10:51:41;;;;;;;;;;;;;;;9.03;67.72;101888.91;4991661;28;20025;-77
2024/01/25 10:54:08;;;;;;;;;;;;;;;9.02;66.92;101881.03;4985347;28;19949;-78
2024/01/25 10:56:35;;;;;;;;;;;;;;;9.28;67.54;101862.19;4986301;28;19933;-78
2024/01/25 10:59:01;;;;;;;;;;;;;;;9.35;66.46;101870.13;4987504;28;20258;-76
2024/01/25 11:01:28;;;;;;;;;;;;;;;9.20;66.42;101881.31;4952704;28;19937;-79
2024/01/25 11:03:57;;;;;;;;;;;;;;;9.24;66.62;101871.78;4968141;28;20301;-77
2024/01/25 11:06:29;;;;;;;;;;;;;;;9.39;67.87;101874.56;4973554;28;19980;-77
2024/01/25 11:09:09;;;;;;;;;;;;;;;9.55;67.51;101877.38;4974164;28;19926;-78
2024/01/25 11:11:37;;;;;;;;;;;;;;;9.52;66.92;101883.47;4972946;28;19934;-77
2024/01/25 11:14:03;;;;;;;;;;;;;;;9.51;67.68;101881.69;4988468;28;19934;-77
2024/01/25 11:16:31;;;;;;;;;;;;;;;9.43;66.84;101882.47;4985147;28;19944;-76
2024/01/25 11:19:04;;;;;;;;;;;;;;;9.62;68.25;101879.22;4959363;28;19966;-78
2024/01/25 11:21:38;;;;;;;;;;;;;;;9.73;65.85;101880.22;4974253;28;19940;-78
2024/01/25 11:24:11;;;;;;;;;;;;;;;9.73;65.58;101875.00;4981387;28;19957;-77
2024/01/25 11:26:38;;;;;;;;;;;;;;;9.92;65.34;101880.41;4983718;28;19925;-77
2024/01/25 11:29:05;;;;;;;;;;;;;;;9.93;65.48;101871.69;4970196;28;19938;-77
2024/01/25 11:31:33;;;;;;;;;;;;;;;10.02;65.56;101863.03;4982787;28;19929;-76
2024/01/25 11:34:00;;;;;;;;;;;;;;;9.73;65.13;101859.25;4974804;28;19926;-78
2024/01/25 11:36:28;;;;;;;;;;;;;;;9.85;65.20;101860.25;4953890;28;20044;-78
2024/01/25 11:38:55;;;;;;;;;;;;;;;10.26;64.82;101857.16;4938186;28;19930;-77
2024/01/25 11:41:55;;;;;;;;;;;;;;;10.49;64.27;101843.38;4948646;28;19926;-77
2024/01/25 11:44:18;;;;;;;;;;;;;;;10.20;63.73;101847.47;4949101;28;19934;-78
2024/01/25 11:46:45;;;;;;;;;;;;;;;10.42;64.98;101839.81;4965049;28;19926;-78
2024/01/25 11:49:22;;;;;;;;;;;;;;;10.53;64.42;101843.41;4972383;28;19926;-78
2024/01/25 11:52:02;;;;;;;;;;;;;;;;;;;;;
2024/01/25 11:54:42;;;;;;;;;;;;;;;10.75;65.34;101828.69;4949642;28;19930;-78
2024/01/25 11:57:09;;;;;;;;;;;;;;;10.66;63.80;101826.00;4975458;28;19973;-79
2024/01/25 11:59:36;;;;;;;;;;;;;;;10.63;63.68;101814.59;4967936;28;19965;-79
2024/01/25 12:02:05;;;;;;;;;;;;;;;10.57;63.53;101812.78;4974534;28;20168;-79
2024/01/25 12:04:32;;;;;;;;;;;;;;;10.83;62.86;101798.97;4991966;28;19993;-78
2024/01/25 12:07:03;;;;;;;;;;;;;;;11.13;62.80;101801.72;4967775;28;20022;-77
2024/01/25 12:09:30;;;;;;;;;;;;;;;10.85;61.78;101815.59;4987434;28;19930;-79
2024/01/25 12:11:57;;;;;;;;;;;;;;;11.11;62.62;101806.13;4986389;28;20369;-79
2024/01/25 12:14:24;;;;;;;;;;;;;;;11.49;61.71;101800.09;4990537;28;20034;-78
2024/01/25 12:16:50;;;;;;;;;;;;;;;11.49;61.39;101802.72;4992802;28;19942;-78
2024/01/25 12:19:17;;;;;;;;;;;;;;;11.58;61.71;101795.75;4980153;28;20280;-78
2024/01/25 12:21:45;;;;;;;;;;;;;;;11.66;61.47;101779.13;4982939;28;19926;-77
2024/01/25 12:24:11;;;;;;;;;;;;;;;11.59;59.95;101773.84;5001839;28;19926;-77
2024/01/25 12:26:38;;;;;;;;;;;;;;;11.46;60.47;101773.81;4978184;28;19934;-78
2024/01/25 12:29:05;;;;;;;;;;;;;;;11.08;61.75;101761.44;4990508;28;19932;-78
2024/01/25 12:31:31;;;;;;;;;;;;;;;11.37;62.14;101747.53;4990512;28;19989;-78
2024/01/25 12:33:58;;;;;;;;;;;;;;;11.24;61.38;101743.97;5002930;28;20615;-79
2024/01/25 12:38:55;;;;;;;;;;;;;;;11.02;59.88;101743.03;4940409;28;19941;-84
2024/01/25 12:41:22;;;;;;;;;;;;;;;11.19;59.65;101742.22;4939939;28;19926;-83
2024/01/25 12:44:01;;;;;;;;;;;;;;;11.14;59.86;101756.19;4961466;28;19930;-85
2024/01/25 12:46:49;;;;;;;;;;;;;;;11.06;61.36;101752.66;4950797;28;19982;-91
2024/01/25 12:49:37;;;;;;;;;;;;;;;11.08;61.15;101753.56;4904522;28;19949;-90
2024/01/25 12:52:15;;;;;;;;;;;;;;;10.86;60.98;101749.06;4950823;28;19926;-89